Poyntelle, Pennsylvania
Current Conditions -  °F | °C
As of 8:35 AM on Thursday 18 Dec 2014 (Local Time) from KMSV Reporting Station
Overcast Overcast  
Wind Chill: 17°   Ceiling: 2300
Heat Index: 30°   Visibility: 10mi
Dew Point: 21°   Wind: 21mph
Humidity: 69%   Direction: 290°WNW
Pressure: 29.93"   Gusts: 31mph
Location:  41.82°N, 75.42°W
Report Text: KMSV 181335Z 29018G27KT 10SM OVC023 M01/M06 A2993 RMK AO1 70007
Loading
Personal Weather Stations






























Interactive Weather Map New forecast layout! Learn more

10-Day Weather Forecast

Advertisements
Track Severe Weather on mobile